createdAt,value
2018-08-02T00:00:29.252Z,1.53
2018-08-02T00:02:57.666Z,1.97
2018-08-02T00:05:26.059Z,1.60
2018-08-02T00:07:55.219Z,2.10
2018-08-02T00:10:24.207Z,2.23
2018-08-02T00:12:52.603Z,2.10
2018-08-02T00:15:21.245Z,2.23
2018-08-02T00:17:49.689Z,2.20
2018-08-02T00:20:18.327Z,2.00
2018-08-02T00:22:47.709Z,2.30
2018-08-02T00:25:16.375Z,2.83
2018-08-02T00:27:44.879Z,1.67
2018-08-02T00:30:13.591Z,2.20
2018-08-02T00:32:42.416Z,1.93
2018-08-02T00:35:11.115Z,1.80
2018-08-02T00:37:39.800Z,1.80
2018-08-02T00:40:08.213Z,2.50
2018-08-02T00:42:36.630Z,2.80
2018-08-02T00:45:04.978Z,2.63
2018-08-02T00:47:33.351Z,2.40
2018-08-02T00:50:01.763Z,2.43
2018-08-02T00:52:30.219Z,2.20
2018-08-02T00:54:58.891Z,1.73
2018-08-02T00:57:27.251Z,1.97
2018-08-02T00:59:56.215Z,1.77
2018-08-02T01:02:24.921Z,2.27
2018-08-02T01:04:53.314Z,2.43
2018-08-02T01:07:21.710Z,1.70
2018-08-02T01:09:50.176Z,2.40
2018-08-02T01:12:19.244Z,1.60
2018-08-02T01:14:47.639Z,1.77
2018-08-02T01:17:16.723Z,2.30
2018-08-02T01:19:45.131Z,2.10
2018-08-02T01:22:13.531Z,1.23
2018-08-02T01:24:42.467Z,1.90
2018-08-02T01:27:11.419Z,2.00
2018-08-02T01:29:39.851Z,2.53
2018-08-02T01:32:08.631Z,2.07
2018-08-02T01:34:37.004Z,2.13
2018-08-02T01:37:05.412Z,2.10
2018-08-02T01:39:33.791Z,2.17
2018-08-02T01:42:02.447Z,2.17
2018-08-02T01:44:57.515Z,1.90
2018-08-02T01:47:25.959Z,1.40
2018-08-02T01:49:54.572Z,1.53
2018-08-02T01:52:23.724Z,1.93
2018-08-02T01:54:52.355Z,2.63
2018-08-02T01:57:21.591Z,1.77
2018-08-02T01:59:50.183Z,2.07
2018-08-02T02:02:18.570Z,1.90
2018-08-02T02:04:47.235Z,2.47
2018-08-02T02:07:15.681Z,2.10
2018-08-02T02:09:44.059Z,2.70
2018-08-02T02:12:12.679Z,1.50
2018-08-02T02:14:41.055Z,2.37
2018-08-02T02:17:09.460Z,2.17
2018-08-02T02:19:37.926Z,2.43
2018-08-02T02:22:06.599Z,1.87
2018-08-02T02:24:35.458Z,2.20
2018-08-02T02:27:03.818Z,2.00
2018-08-02T02:29:32.543Z,2.50
2018-08-02T02:32:00.946Z,2.20
2018-08-02T02:34:29.303Z,2.77
2018-08-02T02:36:57.712Z,2.27
2018-08-02T02:39:26.060Z,2.70
2018-08-02T02:41:54.454Z,2.93
2018-08-02T02:44:23.547Z,2.50
2018-08-02T02:46:52.437Z,3.50
2018-08-02T02:49:20.839Z,2.67
2018-08-02T02:51:49.494Z,2.70
2018-08-02T02:54:17.867Z,4.03
2018-08-02T02:56:46.234Z,4.07
2018-08-02T02:59:14.942Z,4.23
2018-08-02T03:01:43.341Z,3.20
2018-08-02T03:04:11.731Z,3.23
2018-08-02T03:06:40.111Z,3.90
2018-08-02T03:09:10.244Z,3.73
2018-08-02T03:11:39.823Z,4.97
2018-08-02T03:14:08.311Z,4.70
2018-08-02T03:16:36.718Z,3.77
2018-08-02T03:19:04.899Z,4.63
2018-08-02T03:21:33.924Z,4.40
2018-08-02T03:24:02.489Z,4.87
2018-08-02T03:26:31.023Z,4.03
2018-08-02T03:29:00.647Z,3.40
2018-08-02T03:31:28.774Z,3.80
2018-08-02T03:33:57.268Z,3.70
2018-08-02T03:36:25.712Z,3.80
2018-08-02T03:38:54.219Z,2.90
2018-08-02T03:41:22.617Z,2.57
2018-08-02T03:43:51.185Z,3.80
2018-08-02T03:46:19.766Z,4.87
2018-08-02T03:48:48.191Z,3.03
2018-08-02T03:51:16.679Z,4.17
2018-08-02T03:53:45.101Z,3.97
2018-08-02T03:56:13.739Z,4.77
2018-08-02T03:58:42.426Z,4.07
2018-08-02T04:01:10.478Z,3.13
2018-08-02T04:03:39.159Z,4.00
2018-08-02T04:06:08.011Z,4.53
2018-08-02T04:08:36.696Z,4.30
2018-08-02T04:11:05.078Z,6.40
2018-08-02T04:13:33.579Z,4.43
2018-08-02T04:16:02.236Z,4.67
2018-08-02T04:18:31.141Z,4.03
2018-08-02T04:20:59.835Z,3.50
2018-08-02T04:23:28.475Z,3.27
2018-08-02T04:25:57.699Z,4.73
2018-08-02T04:28:26.111Z,5.13
2018-08-02T04:30:54.486Z,3.80
2018-08-02T04:33:23.471Z,4.60
2018-08-02T04:35:51.866Z,4.63
2018-08-02T04:38:20.719Z,4.30
2018-08-02T04:40:49.455Z,5.17
2018-08-02T04:43:18.078Z,5.13
2018-08-02T04:45:47.279Z,5.40
2018-08-02T04:48:16.511Z,6.07
2018-08-02T04:50:44.908Z,6.20
2018-08-02T04:53:13.468Z,5.17
2018-08-02T04:55:41.846Z,6.03
2018-08-02T04:58:10.502Z,6.50
2018-08-02T05:00:39.198Z,6.03
2018-08-02T05:03:07.583Z,5.73
2018-08-02T05:05:36.194Z,4.03
2018-08-02T05:08:04.593Z,6.10
2018-08-02T05:10:33.702Z,5.03
2018-08-02T05:13:02.084Z,5.03
2018-08-02T05:15:30.615Z,4.67
2018-08-02T05:17:59.011Z,5.70
2018-08-02T05:20:28.671Z,6.17
2018-08-02T05:22:57.103Z,4.63
2018-08-02T05:25:25.447Z,4.50
2018-08-02T05:27:54.279Z,4.03
2018-08-02T05:30:22.959Z,3.90
2018-08-02T05:32:51.315Z,4.00
2018-08-02T05:35:19.851Z,4.07
2018-08-02T05:37:48.859Z,4.07
2018-08-02T05:40:17.240Z,4.20
2018-08-02T05:42:46.453Z,5.33
2018-08-02T05:45:15.447Z,3.90
2018-08-02T05:47:44.046Z,4.70
2018-08-02T05:50:12.783Z,5.40
2018-08-02T05:52:41.363Z,4.30
2018-08-02T05:55:09.779Z,3.20
2018-08-02T05:57:38.438Z,4.13
2018-08-02T06:00:07.851Z,4.57
2018-08-02T06:02:36.526Z,3.93
2018-08-02T06:05:04.903Z,4.70
2018-08-02T06:07:34.011Z,3.47
2018-08-02T06:10:02.419Z,3.83
2018-08-02T06:12:30.819Z,4.53
2018-08-02T06:14:59.210Z,4.30
2018-08-02T06:17:27.586Z,4.90
2018-08-02T06:19:56.006Z,4.40
2018-08-02T06:22:24.654Z,4.00
2018-08-02T06:24:53.259Z,3.80
2018-08-02T06:27:21.615Z,3.27
2018-08-02T06:29:49.998Z,3.20
2018-08-02T06:32:18.351Z,3.80
2018-08-02T06:34:46.701Z,3.90
2018-08-02T06:37:15.096Z,3.37
2018-08-02T06:39:43.763Z,4.10
2018-08-02T06:42:12.255Z,4.30
2018-08-02T06:44:40.918Z,4.23
2018-08-02T06:47:09.679Z,3.20
2018-08-02T06:49:38.410Z,4.10
2018-08-02T06:52:06.784Z,3.20
2018-08-02T06:54:35.158Z,4.50
2018-08-02T06:57:03.542Z,3.40
2018-08-02T06:59:32.409Z,3.90
2018-08-02T07:02:01.089Z,3.27
2018-08-02T07:04:29.775Z,5.00
2018-08-02T07:06:58.175Z,4.07
2018-08-02T07:09:26.559Z,4.07
2018-08-02T07:11:54.929Z,4.40
2018-08-02T07:14:23.306Z,3.90
2018-08-02T07:16:51.710Z,3.90
2018-08-02T07:19:20.114Z,4.00
2018-08-02T07:21:48.467Z,4.47
2018-08-02T07:24:17.184Z,4.43
2018-08-02T07:26:45.576Z,4.10
2018-08-02T07:29:14.230Z,3.27
2018-08-02T07:31:42.956Z,5.90
2018-08-02T07:34:12.255Z,4.57
2018-08-02T07:36:40.947Z,5.10
2018-08-02T07:39:09.347Z,3.50
2018-08-02T07:41:38.002Z,4.77
2018-08-02T07:44:06.487Z,5.87
2018-08-02T07:46:34.978Z,4.33
2018-08-02T07:49:03.797Z,3.87
2018-08-02T07:51:31.903Z,4.30
2018-08-02T07:54:00.508Z,4.63
2018-08-02T07:56:29.295Z,3.90
2018-08-02T07:58:57.704Z,4.37
2018-08-02T08:01:26.123Z,3.90
2018-08-02T08:03:54.763Z,3.80
2018-08-02T08:06:23.191Z,3.97
2018-08-02T08:08:51.975Z,4.30
2018-08-02T08:11:20.054Z,3.60
2018-08-02T08:13:48.718Z,3.87
2018-08-02T08:16:17.060Z,4.73
2018-08-02T08:18:45.926Z,4.30
2018-08-02T08:21:14.347Z,3.60
2018-08-02T08:23:42.984Z,3.60
2018-08-02T08:26:11.382Z,3.40
2018-08-02T08:28:39.769Z,3.87
2018-08-02T08:31:08.438Z,3.87
2018-08-02T08:33:37.055Z,3.40
2018-08-02T08:36:05.798Z,4.10
2018-08-02T08:38:34.228Z,3.30
2018-08-02T08:41:02.592Z,3.70
2018-08-02T08:43:31.180Z,3.30
2018-08-02T08:45:59.551Z,3.57
2018-08-02T08:48:28.162Z,4.60
2018-08-02T08:50:57.215Z,3.40
2018-08-02T08:53:25.861Z,4.07
2018-08-02T08:55:54.281Z,3.70
2018-08-02T08:58:22.707Z,4.00
2018-08-02T09:00:51.331Z,4.27
2018-08-02T09:03:20.049Z,4.37
2018-08-02T09:05:48.403Z,4.33
2018-08-02T09:08:17.076Z,4.50
2018-08-02T09:10:45.583Z,5.60
2018-08-02T09:13:13.983Z,4.00
2018-08-02T09:15:42.824Z,5.20
2018-08-02T09:18:11.194Z,4.90
2018-08-02T09:20:39.930Z,4.93
2018-08-02T09:23:08.310Z,5.07
2018-08-02T09:25:37.002Z,4.57
2018-08-02T09:28:05.442Z,4.57
2018-08-02T09:30:34.059Z,4.27
2018-08-02T09:33:02.805Z,4.10
2018-08-02T09:35:32.590Z,4.70
2018-08-02T09:38:01.573Z,4.27
2018-08-02T09:40:30.219Z,3.80
2018-08-02T09:42:58.915Z,5.47
2018-08-02T09:45:27.874Z,4.10
2018-08-02T09:47:56.259Z,3.67
2018-08-02T09:50:25.283Z,5.70
2018-08-02T09:52:53.995Z,3.60
2018-08-02T09:55:22.367Z,4.00
2018-08-02T09:57:50.794Z,4.33
2018-08-02T10:00:23.379Z,3.70
2018-08-02T10:02:52.662Z,4.10
2018-08-02T10:05:21.028Z,4.33
2018-08-02T10:07:50.359Z,3.70
2018-08-02T10:10:19.041Z,3.30
2018-08-02T10:12:47.680Z,2.40
2018-08-02T10:15:16.229Z,3.37
2018-08-02T10:17:45.207Z,3.63
2018-08-02T10:20:13.745Z,3.07
2018-08-02T10:22:42.387Z,3.13
2018-08-02T10:25:11.547Z,3.57
2018-08-02T10:27:40.215Z,3.70
2018-08-02T10:30:10.503Z,2.80
2018-08-02T10:32:39.240Z,5.10
2018-08-02T10:35:07.795Z,5.00
2018-08-02T10:37:37.870Z,6.83
2018-08-02T10:40:07.377Z,5.10
2018-08-02T10:42:36.028Z,3.93
2018-08-02T10:45:04.550Z,4.40
2018-08-02T10:47:33.500Z,4.57
2018-08-02T10:50:02.300Z,5.47
2018-08-02T10:52:30.566Z,4.83
2018-08-02T10:54:59.369Z,3.87
2018-08-02T10:57:27.343Z,4.37
2018-08-02T10:59:57.013Z,3.93
2018-08-02T11:02:26.141Z,4.53
2018-08-02T11:04:54.751Z,4.87
2018-08-02T11:07:23.716Z,4.13
2018-08-02T11:09:53.233Z,3.80
2018-08-02T11:12:21.815Z,3.80
2018-08-02T11:14:51.449Z,3.63
2018-08-02T11:17:20.927Z,5.10
2018-08-02T11:19:50.533Z,4.97
2018-08-02T11:22:20.841Z,5.23
2018-08-02T11:24:50.171Z,4.70
2018-08-02T11:27:19.282Z,4.37
2018-08-02T11:29:47.918Z,5.47
2018-08-02T11:32:17.519Z,5.60
2018-08-02T11:34:47.356Z,4.00
2018-08-02T11:37:15.893Z,4.67
2018-08-02T11:39:45.206Z,4.00
2018-08-02T11:42:14.843Z,3.47
2018-08-02T11:44:43.446Z,4.00
2018-08-02T11:47:11.676Z,2.90
2018-08-02T11:49:40.052Z,4.33
2018-08-02T11:52:08.463Z,3.77
2018-08-02T11:54:38.213Z,4.33
2018-08-02T11:57:07.902Z,4.63
2018-08-02T11:59:37.368Z,3.90
2018-08-02T12:02:05.956Z,3.23
2018-08-02T12:04:35.081Z,3.27
2018-08-02T12:07:04.308Z,4.17
2018-08-02T12:09:33.228Z,3.77
2018-08-02T12:12:02.114Z,3.40
2018-08-02T12:14:31.470Z,3.57
2018-08-02T12:17:00.246Z,4.10
2018-08-02T12:19:31.682Z,3.80
2018-08-02T12:22:00.589Z,4.30
2018-08-02T12:24:29.603Z,4.17
2018-08-02T12:26:58.231Z,4.93
2018-08-02T12:29:27.001Z,3.80
2018-08-02T12:31:55.588Z,4.30
2018-08-02T12:34:24.723Z,3.53
2018-08-02T12:36:53.632Z,3.90
2018-08-02T12:39:22.207Z,3.77
2018-08-02T12:41:51.175Z,4.00
2018-08-02T12:44:20.238Z,2.70
2018-08-02T12:46:48.866Z,3.33
2018-08-02T12:49:17.658Z,3.57
2018-08-02T12:51:46.684Z,3.37
2018-08-02T12:54:15.465Z,3.40
2018-08-02T12:56:44.644Z,3.23
2018-08-02T12:59:13.572Z,3.43
2018-08-02T13:01:42.590Z,3.40
2018-08-02T13:04:11.938Z,4.57
2018-08-02T13:06:40.337Z,3.97
2018-08-02T13:09:09.866Z,4.10
2018-08-02T13:11:38.412Z,4.20
2018-08-02T13:14:06.878Z,3.57
2018-08-02T13:16:35.601Z,3.83
2018-08-02T13:19:04.219Z,3.27
2018-08-02T13:21:32.626Z,4.40
2018-08-02T13:24:00.718Z,3.60
2018-08-02T13:26:29.380Z,4.40
2018-08-02T13:28:57.811Z,4.20
2018-08-02T13:31:26.943Z,3.57
2018-08-02T13:33:55.499Z,3.83
2018-08-02T13:36:25.079Z,4.53
2018-08-02T13:38:54.741Z,4.00
2018-08-02T13:41:23.483Z,4.03
2018-08-02T13:43:52.719Z,4.00
2018-08-02T13:46:22.315Z,4.10
2018-08-02T13:48:51.142Z,3.73
2018-08-02T13:51:20.007Z,3.93
2018-08-02T13:53:48.768Z,4.47
2018-08-02T13:56:18.268Z,3.77
2018-08-02T13:58:46.634Z,3.93
2018-08-02T14:01:15.498Z,4.13
2018-08-02T14:03:44.582Z,3.93
2018-08-02T14:06:13.654Z,3.60
2018-08-02T14:08:42.101Z,3.83
2018-08-02T14:11:10.474Z,5.10
2018-08-02T14:13:39.051Z,4.17
2018-08-02T14:16:07.577Z,4.93
2018-08-02T14:18:36.312Z,5.33
2018-08-02T14:21:04.731Z,4.40
2018-08-02T14:23:33.091Z,3.97
2018-08-02T14:26:01.807Z,3.90
2018-08-02T14:28:30.265Z,3.50
2018-08-02T14:30:58.839Z,4.80
2018-08-02T14:33:27.806Z,3.70
2018-08-02T14:35:56.719Z,4.20
2018-08-02T14:38:25.417Z,4.30
2018-08-02T14:40:53.788Z,3.67
2018-08-02T14:43:23.023Z,4.80
2018-08-02T14:45:51.430Z,3.40
2018-08-02T14:48:19.850Z,4.53
2018-08-02T14:50:48.222Z,3.17
2018-08-02T14:53:16.651Z,4.50
2018-08-02T14:55:45.077Z,4.07
2018-08-02T14:58:15.770Z,4.67
2018-08-02T15:00:45.910Z,4.33
2018-08-02T15:03:14.290Z,4.70
2018-08-02T15:05:42.987Z,3.70
2018-08-02T15:08:11.364Z,4.30
2018-08-02T15:10:39.746Z,4.70
2018-08-02T15:13:08.135Z,4.17
2018-08-02T15:15:37.003Z,4.60
2018-08-02T15:18:05.391Z,4.57
2018-08-02T15:20:33.823Z,4.63
2018-08-02T15:23:02.187Z,5.03
2018-08-02T15:25:30.565Z,4.43
2018-08-02T15:27:58.934Z,4.37
2018-08-02T15:30:27.539Z,4.53
2018-08-02T15:32:56.477Z,4.27
2018-08-02T15:35:24.859Z,4.67
2018-08-02T15:37:53.220Z,4.37
2018-08-02T15:40:21.584Z,4.60
2018-08-02T15:42:50.518Z,4.73
2018-08-02T15:45:19.231Z,4.73
2018-08-02T15:47:47.571Z,4.97
2018-08-02T15:50:16.579Z,4.60
2018-08-02T15:52:44.943Z,4.17
2018-08-02T15:55:14.058Z,5.00
2018-08-02T15:57:43.063Z,4.30
2018-08-02T16:00:12.157Z,4.93
2018-08-02T16:02:41.129Z,4.63
2018-08-02T16:05:10.213Z,3.80
2018-08-02T16:07:39.008Z,4.30
2018-08-02T16:10:07.747Z,4.67
2018-08-02T16:12:37.757Z,5.77
2018-08-02T16:15:07.560Z,4.43
2018-08-02T16:17:35.982Z,4.60
2018-08-02T16:20:05.123Z,3.97
2018-08-02T16:22:34.390Z,4.03
2018-08-02T16:25:04.627Z,4.57
2018-08-02T16:27:33.616Z,4.70
2018-08-02T16:30:02.684Z,4.40
2018-08-02T16:32:31.595Z,4.77
2018-08-02T16:35:00.530Z,4.07
2018-08-02T16:37:29.627Z,5.23
2018-08-02T16:39:59.320Z,4.50
2018-08-02T16:42:28.339Z,4.60
2018-08-02T16:44:56.761Z,4.10
2018-08-02T16:47:25.287Z,5.70
2018-08-02T16:49:53.650Z,4.40
2018-08-02T16:52:22.381Z,4.47
2018-08-02T16:54:50.914Z,5.10
2018-08-02T16:57:19.484Z,4.47
2018-08-02T16:59:48.484Z,3.53
2018-08-02T17:02:17.244Z,4.30
2018-08-02T17:04:45.946Z,4.77
2018-08-02T17:07:15.371Z,4.30
2018-08-02T17:09:44.019Z,4.97
2018-08-02T17:12:12.774Z,4.00
2018-08-02T17:14:42.276Z,5.30
2018-08-02T17:17:11.365Z,4.87
2018-08-02T17:19:40.434Z,4.20
2018-08-02T17:22:09.310Z,4.77
2018-08-02T17:24:38.157Z,4.40
2018-08-02T17:27:07.874Z,4.30
2018-08-02T17:29:37.383Z,4.67
2018-08-02T17:32:06.686Z,4.80
2018-08-02T17:34:35.617Z,4.50
2018-08-02T17:37:04.462Z,6.00
2018-08-02T17:39:33.326Z,5.27
2018-08-02T17:42:02.130Z,5.60
2018-08-02T17:44:31.334Z,6.20
2018-08-02T17:46:59.739Z,5.07
2018-08-02T17:49:28.398Z,5.10
2018-08-02T17:51:56.798Z,6.30
2018-08-02T17:54:26.158Z,5.40
2018-08-02T17:56:55.934Z,5.40
2018-08-02T17:59:24.588Z,5.73
2018-08-02T18:01:55.215Z,6.60
2018-08-02T18:04:23.784Z,6.07
2018-08-02T18:06:53.338Z,5.47
2018-08-02T18:09:21.723Z,5.33
2018-08-02T18:11:50.711Z,4.73
2018-08-02T18:14:20.623Z,5.87
2018-08-02T18:16:50.099Z,4.80
2018-08-02T18:19:18.942Z,6.00
2018-08-02T18:21:48.077Z,6.50
2018-08-02T18:24:17.369Z,6.53
2018-08-02T18:26:47.112Z,4.63
2018-08-02T18:29:15.963Z,5.00
2018-08-02T18:31:45.542Z,6.50
2018-08-02T18:34:15.458Z,5.90
2018-08-02T18:36:44.954Z,5.63
2018-08-02T18:39:15.661Z,4.93
2018-08-02T18:41:45.043Z,6.10
2018-08-02T18:44:14.011Z,7.07
2018-08-02T18:46:42.741Z,5.87
2018-08-02T18:49:12.079Z,5.63
2018-08-02T18:51:40.791Z,6.13
2018-08-02T18:54:09.171Z,6.00
2018-08-02T18:56:37.555Z,5.33
2018-08-02T18:59:06.450Z,6.47
2018-08-02T19:01:34.815Z,6.30
2018-08-02T19:04:03.203Z,5.73
2018-08-02T19:06:31.570Z,6.13
2018-08-02T19:09:00.175Z,7.07
2018-08-02T19:11:28.620Z,6.33
2018-08-02T19:13:57.219Z,7.00
2018-08-02T19:16:25.599Z,5.90
2018-08-02T19:18:54.071Z,6.70
2018-08-02T19:21:22.470Z,6.67
2018-08-02T19:23:50.855Z,7.63
2018-08-02T19:26:19.530Z,5.47
2018-08-02T19:28:48.398Z,7.07
2018-08-02T19:31:17.062Z,7.13
2018-08-02T19:33:45.435Z,5.97
2018-08-02T19:36:13.818Z,6.50
2018-08-02T19:38:42.539Z,7.27
2018-08-02T19:41:10.946Z,5.87
2018-08-02T19:43:39.393Z,6.20
2018-08-02T19:46:08.076Z,4.77
2018-08-02T19:48:37.086Z,5.90
2018-08-02T19:51:05.748Z,5.83
2018-08-02T19:53:34.412Z,6.73
2018-08-02T19:56:03.062Z,5.40
2018-08-02T19:58:31.498Z,6.03
2018-08-02T20:03:34.623Z,7.27
2018-08-02T20:06:03.022Z,6.93
2018-08-02T20:08:31.419Z,7.50
2018-08-02T20:11:00.152Z,7.70
2018-08-02T20:13:28.559Z,5.83
2018-08-02T20:15:57.366Z,5.40
2018-08-02T20:18:25.707Z,7.20
2018-08-02T20:20:54.103Z,5.80
2018-08-02T20:23:22.747Z,6.40
2018-08-02T20:25:51.127Z,6.50
2018-08-02T20:28:20.020Z,7.03
2018-08-02T20:30:48.995Z,6.07
2018-08-02T20:33:17.419Z,6.63
2018-08-02T20:35:45.823Z,6.30
2018-08-02T20:38:14.259Z,6.40
2018-08-02T20:40:42.933Z,6.37
2018-08-02T20:43:11.736Z,5.87
2018-08-02T20:45:40.139Z,6.17
2018-08-02T20:48:08.565Z,7.27
2018-08-02T20:50:37.292Z,5.47
2018-08-02T20:53:06.258Z,6.40
2018-08-02T20:55:34.635Z,7.50
2018-08-02T20:58:03.039Z,6.43
2018-08-02T21:00:31.670Z,6.37
2018-08-02T21:03:00.771Z,6.90
2018-08-02T21:05:29.378Z,6.67
2018-08-02T21:07:57.775Z,7.07
2018-08-02T21:10:26.540Z,6.63
2018-08-02T21:12:55.293Z,7.07
2018-08-02T21:15:23.640Z,7.50
2018-08-02T21:17:52.596Z,7.43
2018-08-02T21:20:21.207Z,7.00
2018-08-02T21:22:49.594Z,7.10
2018-08-02T21:25:19.471Z,7.67
2018-08-02T21:27:47.835Z,7.23
2018-08-02T21:30:16.232Z,7.20
2018-08-02T21:32:44.599Z,6.87
2018-08-02T21:35:13.191Z,6.93
2018-08-02T21:37:41.561Z,6.13
2018-08-02T21:40:10.763Z,6.30
2018-08-02T21:42:39.134Z,7.57
2018-08-02T21:45:07.878Z,6.63
2018-08-02T21:47:37.022Z,9.00
2018-08-02T21:50:05.940Z,7.13
2018-08-02T21:52:34.349Z,7.83
2018-08-02T21:55:03.406Z,8.60
2018-08-02T21:57:31.771Z,6.93
2018-08-02T22:00:00.455Z,8.27
2018-08-02T22:02:39.603Z,7.60
2018-08-02T22:05:08.275Z,7.10
2018-08-02T22:07:36.951Z,7.70
2018-08-02T22:10:06.047Z,8.40
2018-08-02T22:12:39.963Z,7.43
2018-08-02T22:15:13.799Z,8.23
2018-08-02T22:17:42.487Z,7.00
2018-08-02T22:20:11.196Z,8.17
2018-08-02T22:22:39.808Z,7.37
2018-08-02T22:25:08.207Z,8.70
2018-08-02T22:27:36.584Z,7.53
2018-08-02T22:30:05.294Z,7.23
2018-08-02T22:32:33.684Z,7.43
2018-08-02T22:35:02.080Z,8.80
2018-08-02T22:37:30.466Z,7.20
2018-08-02T22:39:59.179Z,8.83
2018-08-02T22:42:27.893Z,8.20
2018-08-02T22:44:56.300Z,8.63
2018-08-02T22:47:24.987Z,6.37
2018-08-02T22:49:53.632Z,6.67
2018-08-02T22:52:22.043Z,7.70
2018-08-02T22:54:51.808Z,9.03
2018-08-02T22:57:20.255Z,7.67
2018-08-02T22:59:49.379Z,7.60
2018-08-02T23:02:18.187Z,7.13
2018-08-02T23:04:46.670Z,7.30
2018-08-02T23:07:15.771Z,8.67
2018-08-02T23:09:44.152Z,7.20
2018-08-02T23:12:12.881Z,6.60
2018-08-02T23:14:41.271Z,8.07
2018-08-02T23:17:09.929Z,9.03
2018-08-02T23:19:38.554Z,9.07
2018-08-02T23:22:07.726Z,7.57
2018-08-02T23:24:36.538Z,8.03
2018-08-02T23:27:04.945Z,7.30
2018-08-02T23:29:33.746Z,6.60
2018-08-02T23:32:02.440Z,8.20
2018-08-02T23:34:31.080Z,7.87
2018-08-02T23:37:00.442Z,7.00
2018-08-02T23:39:29.023Z,7.70
2018-08-02T23:41:57.643Z,7.37
2018-08-02T23:44:26.019Z,7.40
2018-08-02T23:46:54.703Z,6.93
2018-08-02T23:49:23.595Z,7.80
2018-08-02T23:51:52.250Z,7.80
2018-08-02T23:54:20.939Z,7.43
2018-08-02T23:56:49.595Z,7.70
2018-08-02T23:59:17.978Z,6.63
